createdAt,value
2022-12-27T00:55:30.090Z,500.00
2022-12-27T00:56:30.574Z,500.00
2022-12-27T00:57:30.556Z,500.00
2022-12-27T00:58:30.551Z,500.00
2022-12-27T00:59:30.537Z,500.00
2022-12-27T01:00:30.916Z,500.00
2022-12-27T01:01:30.718Z,453.00
2022-12-27T01:02:30.514Z,441.00
2022-12-27T01:03:30.576Z,439.00
2022-12-27T01:04:30.522Z,457.00
2022-12-27T01:05:30.496Z,474.00
2022-12-27T01:06:30.507Z,500.00
2022-12-27T01:07:30.473Z,500.00
2022-12-27T01:08:30.457Z,500.00
2022-12-27T01:09:30.482Z,499.00
2022-12-27T01:10:30.443Z,500.00
2022-12-27T01:11:51.460Z,500.00
2022-12-27T01:12:30.453Z,502.00
2022-12-27T01:13:30.421Z,501.00
2022-12-27T01:14:30.415Z,491.00
2022-12-27T01:15:30.403Z,481.00
2022-12-27T01:16:30.482Z,469.00
2022-12-27T01:17:30.382Z,500.00
2022-12-27T01:18:30.376Z,500.00
2022-12-27T01:19:30.363Z,500.00
2022-12-27T01:20:30.357Z,504.00
2022-12-27T01:21:30.353Z,503.00
2022-12-27T01:22:30.353Z,500.00
2022-12-27T01:23:30.325Z,500.00
2022-12-27T01:24:30.321Z,500.00
2022-12-27T01:25:30.309Z,506.00
2022-12-27T01:26:30.321Z,504.00
2022-12-27T01:27:30.332Z,501.00
2022-12-27T01:28:30.283Z,505.00
2022-12-27T01:29:30.280Z,502.00
2022-12-27T01:30:30.340Z,502.00
2022-12-27T01:31:30.306Z,500.00
2022-12-27T01:32:30.245Z,504.00
2022-12-27T01:33:30.245Z,506.00
2022-12-27T01:34:30.227Z,505.00
2022-12-27T01:35:30.269Z,505.00
2022-12-27T01:36:30.233Z,502.00
2022-12-27T01:37:30.200Z,506.00
2022-12-27T01:38:30.194Z,510.00
2022-12-27T01:39:30.185Z,507.00
2022-12-27T01:40:30.179Z,504.00
2022-12-27T01:41:30.168Z,502.00
2022-12-27T01:42:30.168Z,507.00
2022-12-27T01:43:30.173Z,503.00
2022-12-27T01:44:30.142Z,512.00
2022-12-27T01:45:30.222Z,508.00
2022-12-27T01:46:30.120Z,508.00
2022-12-27T01:47:30.114Z,506.00
2022-12-27T01:48:30.106Z,503.00
2022-12-27T01:49:30.111Z,506.00
2022-12-27T01:50:30.138Z,507.00
2022-12-27T01:51:30.106Z,507.00
2022-12-27T01:52:34.427Z,503.00
2022-12-27T01:53:30.075Z,503.00
2022-12-27T01:54:30.058Z,504.00
2022-12-27T01:55:30.065Z,505.00
2022-12-27T01:56:30.039Z,506.00
2022-12-27T01:57:30.034Z,503.00
2022-12-27T01:58:30.019Z,505.00
2022-12-27T01:59:30.030Z,508.00
2022-12-27T02:00:29.998Z,502.00
2022-12-27T02:01:30.094Z,501.00
2022-12-27T02:02:30.503Z,506.00
2022-12-27T02:03:29.978Z,511.00
2022-12-27T02:04:29.987Z,504.00
2022-12-27T02:05:29.949Z,511.00
2022-12-27T02:06:29.947Z,508.00
2022-12-27T02:07:30.084Z,501.00
2022-12-27T02:08:29.937Z,506.00
2022-12-27T02:09:29.918Z,503.00
2022-12-27T02:10:29.937Z,504.00
2022-12-27T02:11:29.908Z,507.00
2022-12-27T02:12:29.905Z,508.00
2022-12-27T02:13:29.881Z,504.00
2022-12-27T02:14:29.872Z,510.00
2022-12-27T02:15:29.890Z,503.00
2022-12-27T02:16:29.910Z,506.00
2022-12-27T02:17:29.884Z,503.00
2022-12-27T02:18:29.842Z,508.00
2022-12-27T02:19:29.834Z,506.00
2022-12-27T02:20:29.818Z,507.00
2022-12-27T02:21:29.809Z,504.00
2022-12-27T02:22:29.809Z,503.00
2022-12-27T02:23:32.278Z,503.00
2022-12-27T02:24:29.792Z,503.00
2022-12-27T02:25:29.779Z,505.00
2022-12-27T02:26:29.772Z,506.00
2022-12-27T02:27:29.775Z,506.00
2022-12-27T02:28:29.774Z,507.00
2022-12-27T02:29:29.752Z,507.00
2022-12-27T02:30:29.815Z,506.00
2022-12-27T02:31:29.758Z,510.00
2022-12-27T02:32:29.723Z,508.00
2022-12-27T02:33:29.729Z,508.00
2022-12-27T02:34:29.706Z,507.00
2022-12-27T02:35:29.702Z,508.00
2022-12-27T02:36:29.697Z,505.00
2022-12-27T02:37:29.679Z,512.00
2022-12-27T02:38:29.667Z,508.00
2022-12-27T02:39:29.663Z,506.00
2022-12-27T02:40:29.653Z,508.00
2022-12-27T02:41:29.644Z,503.00
2022-12-27T02:42:29.632Z,506.00
2022-12-27T02:43:29.631Z,505.00
2022-12-27T02:44:29.619Z,512.00
2022-12-27T02:45:29.611Z,503.00
2022-12-27T02:46:29.651Z,508.00
2022-12-27T02:47:29.629Z,508.00
2022-12-27T02:48:29.584Z,507.00
2022-12-27T02:49:29.570Z,507.00
2022-12-27T02:50:29.574Z,511.00
2022-12-27T02:51:29.556Z,511.00
2022-12-27T02:52:29.547Z,506.00
2022-12-27T02:53:29.545Z,510.00
2022-12-27T02:54:29.541Z,513.00
2022-12-27T02:55:29.531Z,507.00
2022-12-27T02:56:29.516Z,507.00
2022-12-27T02:57:29.502Z,510.00
2022-12-27T02:58:29.499Z,513.00
2022-12-27T02:59:29.485Z,509.00
2022-12-27T03:00:29.477Z,508.00
2022-12-27T03:01:29.634Z,504.00
2022-12-27T03:02:29.647Z,512.00
2022-12-27T03:03:29.480Z,508.00
2022-12-27T03:04:29.442Z,508.00
2022-12-27T03:05:29.439Z,509.00
2022-12-27T03:06:29.429Z,512.00
2022-12-27T03:07:29.422Z,507.00
2022-12-27T03:08:29.412Z,504.00
2022-12-27T03:09:29.400Z,506.00
2022-12-27T03:10:29.402Z,513.00
2022-12-27T03:11:29.377Z,511.00
2022-12-27T03:12:29.397Z,508.00
2022-12-27T03:13:29.369Z,506.00
2022-12-27T03:14:29.352Z,513.00
2022-12-27T03:15:33.379Z,510.00
2022-12-27T03:16:29.421Z,511.00
2022-12-27T03:17:29.340Z,511.00
2022-12-27T03:18:29.335Z,511.00
2022-12-27T03:19:29.341Z,513.00
2022-12-27T03:20:29.304Z,514.00
2022-12-27T03:21:29.294Z,513.00
2022-12-27T03:22:29.285Z,512.00
2022-12-27T03:23:29.285Z,515.00
2022-12-27T03:24:29.270Z,511.00
2022-12-27T03:25:29.272Z,512.00
2022-12-27T03:26:29.251Z,512.00
2022-12-27T03:27:29.240Z,511.00
2022-12-27T03:28:29.243Z,509.00
2022-12-27T03:29:29.226Z,504.00
2022-12-27T03:30:29.220Z,513.00
2022-12-27T03:31:29.207Z,510.00
2022-12-27T03:32:29.208Z,512.00
2022-12-27T03:33:29.191Z,516.00
2022-12-27T03:34:29.185Z,513.00
2022-12-27T03:35:29.203Z,508.00
2022-12-27T03:36:29.167Z,507.00
2022-12-27T03:37:29.181Z,515.00
2022-12-27T03:38:29.154Z,511.00
2022-12-27T03:39:29.150Z,514.00
2022-12-27T03:40:29.133Z,506.00
2022-12-27T03:41:29.122Z,511.00
2022-12-27T03:42:29.118Z,510.00
2022-12-27T03:43:29.107Z,517.00
2022-12-27T03:44:29.105Z,513.00
2022-12-27T03:45:29.102Z,516.00
2022-12-27T03:46:29.138Z,513.00
2022-12-27T03:47:29.069Z,506.00
2022-12-27T03:48:29.069Z,514.00
2022-12-27T03:49:29.057Z,506.00
2022-12-27T03:50:29.046Z,512.00
2022-12-27T03:51:29.111Z,515.00
2022-12-27T03:52:29.059Z,512.00
2022-12-27T03:53:29.020Z,517.00
2022-12-27T03:54:29.018Z,516.00
2022-12-27T03:55:33.353Z,513.00
2022-12-27T03:56:29.183Z,513.00
2022-12-27T03:57:29.166Z,513.00
2022-12-27T03:58:29.160Z,512.00
2022-12-27T03:59:29.153Z,513.00
2022-12-27T04:00:29.149Z,510.00
2022-12-27T04:01:29.256Z,515.00
2022-12-27T04:02:29.386Z,516.00
2022-12-27T04:03:29.175Z,515.00
2022-12-27T04:04:29.112Z,512.00
2022-12-27T04:05:29.150Z,512.00
2022-12-27T04:07:29.116Z,512.00
2022-12-27T04:08:29.073Z,515.00
2022-12-27T04:09:29.072Z,514.00
2022-12-27T04:10:29.055Z,514.00
2022-12-27T04:11:29.052Z,514.00
2022-12-27T04:12:29.076Z,512.00
2022-12-27T04:13:29.033Z,511.00
2022-12-27T04:14:29.026Z,509.00
2022-12-27T04:15:29.020Z,506.00
2022-12-27T04:16:29.009Z,513.00
2022-12-27T04:17:28.996Z,506.00
2022-12-27T04:18:28.992Z,509.00
2022-12-27T04:19:28.988Z,513.00
2022-12-27T04:20:28.975Z,506.00
2022-12-27T04:21:28.970Z,508.00
2022-12-27T04:22:28.953Z,508.00
2022-12-27T04:23:28.980Z,508.00
2022-12-27T04:24:28.942Z,505.00
2022-12-27T04:25:28.927Z,508.00
2022-12-27T04:26:28.923Z,503.00
2022-12-27T04:27:28.907Z,505.00
2022-12-27T04:28:28.900Z,500.00
2022-12-27T04:29:28.899Z,505.00
2022-12-27T04:30:28.884Z,505.00
2022-12-27T04:32:28.866Z,502.00
2022-12-27T04:33:28.855Z,503.00
2022-12-27T04:34:28.856Z,503.00
2022-12-27T04:35:28.840Z,507.00
2022-12-27T04:36:28.831Z,508.00
2022-12-27T04:37:28.829Z,505.00
2022-12-27T04:38:28.818Z,503.00
2022-12-27T04:39:28.829Z,503.00
2022-12-27T04:40:28.800Z,501.00
2022-12-27T04:41:28.788Z,507.00
2022-12-27T04:42:28.788Z,505.00
2022-12-27T04:43:28.772Z,506.00
2022-12-27T04:44:28.769Z,508.00
2022-12-27T04:45:28.764Z,508.00
2022-12-27T04:46:28.801Z,504.00
2022-12-27T04:47:28.742Z,511.00
2022-12-27T04:48:28.727Z,507.00
2022-12-27T13:11:24.335Z,527.00
2022-12-27T16:27:22.623Z,514.00
2022-12-27T18:05:27.099Z,509.00
2022-12-27T18:06:21.761Z,509.00
2022-12-27T18:07:21.750Z,510.00
2022-12-27T18:08:21.743Z,509.00
2022-12-27T18:09:21.739Z,509.00
2022-12-27T18:10:21.727Z,509.00
2022-12-27T18:11:27.780Z,506.00
2022-12-27T18:12:21.709Z,507.00
2022-12-27T18:13:21.704Z,508.00
2022-12-27T18:14:21.699Z,508.00
2022-12-27T18:15:21.712Z,507.00
2022-12-27T18:16:21.698Z,508.00
2022-12-27T18:17:28.336Z,500.00
2022-12-27T18:18:21.659Z,501.00
2022-12-27T18:19:21.665Z,503.00
2022-12-27T18:20:21.642Z,505.00
2022-12-27T18:21:21.625Z,506.00
2022-12-27T18:22:21.619Z,511.00
2022-12-27T18:23:21.611Z,506.00
2022-12-27T18:24:21.608Z,507.00
2022-12-27T18:25:21.596Z,508.00
2022-12-27T18:26:21.587Z,504.00
2022-12-27T18:27:21.575Z,511.00
2022-12-27T18:28:21.568Z,501.00
2022-12-27T18:29:21.565Z,501.00
2022-12-27T18:30:21.553Z,504.00
2022-12-27T18:31:21.630Z,506.00
2022-12-27T18:32:21.534Z,502.00
2022-12-27T18:33:21.523Z,507.00
2022-12-27T18:34:21.514Z,507.00
2022-12-27T18:35:24.413Z,504.00
2022-12-27T18:36:21.496Z,505.00
2022-12-27T18:37:21.500Z,505.00
2022-12-27T18:38:21.489Z,506.00
2022-12-27T18:39:21.469Z,502.00
2022-12-27T18:40:22.246Z,505.00
2022-12-27T18:41:21.462Z,505.00
2022-12-27T18:42:21.446Z,504.00
2022-12-27T18:43:21.436Z,501.00
2022-12-27T18:44:26.851Z,502.00
2022-12-27T18:45:21.416Z,502.00
2022-12-27T18:46:21.499Z,504.00
2022-12-27T18:47:21.436Z,505.00
2022-12-27T18:48:21.406Z,506.00
2022-12-27T18:49:21.546Z,509.00
2022-12-27T18:50:21.394Z,513.00
2022-12-27T18:51:21.360Z,511.00
2022-12-27T18:52:21.348Z,509.00
2022-12-27T18:53:21.346Z,510.00
2022-12-27T18:54:21.334Z,507.00
2022-12-27T18:55:21.323Z,510.00
2022-12-27T18:56:21.311Z,505.00
2022-12-27T18:57:21.303Z,507.00
2022-12-27T18:58:21.298Z,508.00
2022-12-27T18:59:21.302Z,505.00
2022-12-27T19:00:21.277Z,504.00
2022-12-27T19:01:21.467Z,504.00
2022-12-27T19:02:21.342Z,506.00
2022-12-27T19:03:21.392Z,506.00
2022-12-27T19:04:21.264Z,506.00
2022-12-27T19:05:21.248Z,502.00
2022-12-27T19:06:21.226Z,506.00
2022-12-27T19:07:21.227Z,507.00
2022-12-27T19:08:21.211Z,505.00
2022-12-27T19:09:21.207Z,504.00
2022-12-27T19:10:21.193Z,503.00
2022-12-27T19:11:21.174Z,505.00
2022-12-27T19:12:21.168Z,506.00
2022-12-27T19:13:21.166Z,506.00
2022-12-27T19:14:21.155Z,503.00
2022-12-27T19:15:21.148Z,504.00
2022-12-27T19:16:21.170Z,505.00
2022-12-27T19:17:21.145Z,506.00
2022-12-27T19:18:21.117Z,504.00
2022-12-27T19:19:21.130Z,502.00
2022-12-27T19:20:21.101Z,503.00
2022-12-27T19:21:21.098Z,509.00
2022-12-27T19:22:21.087Z,507.00
2022-12-27T19:23:21.070Z,509.00
2022-12-27T19:24:21.065Z,503.00
2022-12-27T19:25:21.052Z,506.00
2022-12-27T19:26:21.047Z,505.00
2022-12-27T19:27:21.034Z,505.00
2022-12-27T19:28:21.026Z,503.00
2022-12-27T19:29:21.019Z,501.00
2022-12-27T19:30:21.011Z,504.00
2022-12-27T19:31:21.013Z,502.00
2022-12-27T19:32:20.993Z,506.00
2022-12-27T19:33:20.987Z,506.00
2022-12-27T19:34:20.973Z,501.00
2022-12-27T19:35:20.988Z,507.00
2022-12-27T19:36:20.957Z,509.00
2022-12-27T19:37:20.952Z,506.00
2022-12-27T19:38:20.938Z,505.00
2022-12-27T19:39:20.925Z,505.00
2022-12-27T19:40:20.915Z,511.00
2022-12-27T19:41:20.910Z,506.00
2022-12-27T19:42:20.904Z,500.00
2022-12-27T19:43:20.899Z,508.00
2022-12-27T19:44:20.888Z,505.00
2022-12-27T19:45:20.874Z,508.00
2022-12-27T19:46:22.201Z,510.00
2022-12-27T19:47:20.856Z,511.00
2022-12-27T19:48:20.846Z,511.00
2022-12-27T19:49:41.596Z,510.00
2022-12-27T19:50:20.829Z,511.00
2022-12-27T19:51:20.844Z,511.00
2022-12-27T19:52:20.827Z,510.00
2022-12-27T19:53:20.807Z,507.00
2022-12-27T19:54:20.789Z,511.00
2022-12-27T19:55:20.783Z,511.00
2022-12-27T19:56:20.776Z,511.00
2022-12-27T19:57:20.767Z,511.00
2022-12-27T19:58:20.757Z,508.00
2022-12-27T19:59:20.786Z,507.00
2022-12-27T20:00:20.746Z,507.00
2022-12-27T20:01:20.825Z,510.00
2022-12-27T20:02:20.911Z,506.00
2022-12-27T20:03:20.746Z,510.00
2022-12-27T20:04:20.743Z,508.00
2022-12-27T20:06:11.280Z,505.00
2022-12-27T20:06:24.177Z,505.00
2022-12-27T20:07:20.701Z,506.00
2022-12-27T20:08:20.673Z,507.00
2022-12-27T20:09:20.664Z,507.00
2022-12-27T20:10:20.671Z,511.00
2022-12-27T20:11:20.663Z,512.00
2022-12-27T20:12:21.278Z,510.00
2022-12-27T20:13:20.623Z,509.00
2022-12-27T20:14:20.617Z,510.00
2022-12-27T20:15:20.611Z,506.00
2022-12-27T20:16:20.632Z,502.00
2022-12-27T20:17:20.587Z,502.00
2022-12-27T20:18:20.573Z,502.00
2022-12-27T20:19:20.585Z,504.00
2022-12-27T20:20:20.569Z,503.00
2022-12-27T20:21:20.557Z,511.00
2022-12-27T20:22:20.546Z,508.00
2022-12-27T20:23:20.563Z,505.00
2022-12-27T20:24:20.525Z,503.00
2022-12-27T20:25:20.528Z,500.00
2022-12-27T20:26:20.511Z,506.00
2022-12-27T20:27:20.502Z,505.00
2022-12-27T20:28:21.289Z,504.00
2022-12-27T20:29:20.481Z,505.00
2022-12-27T20:30:20.473Z,507.00
2022-12-27T20:31:20.518Z,501.00
2022-12-27T20:32:20.490Z,506.00
2022-12-27T20:33:20.446Z,504.00
2022-12-27T20:34:20.437Z,507.00
2022-12-27T20:35:20.431Z,508.00
2022-12-27T20:36:20.421Z,507.00
2022-12-27T20:37:24.479Z,508.00
2022-12-27T20:38:20.420Z,508.00
2022-12-27T20:39:20.433Z,508.00
2022-12-27T20:40:20.431Z,508.00
2022-12-27T20:41:20.389Z,507.00
2022-12-27T20:42:20.383Z,507.00
2022-12-27T20:43:20.381Z,507.00
2022-12-27T20:44:20.367Z,510.00
2022-12-27T20:45:20.412Z,509.00
2022-12-27T20:46:20.403Z,505.00
2022-12-27T20:47:20.337Z,507.00
2022-12-27T20:48:20.327Z,504.00
2022-12-27T20:49:20.331Z,501.00
2022-12-27T20:50:20.330Z,506.00
2022-12-27T20:51:20.318Z,501.00
2022-12-27T20:52:24.293Z,504.00
2022-12-27T20:53:20.291Z,505.00
2022-12-27T20:54:20.280Z,506.00
2022-12-27T20:55:20.294Z,506.00
2022-12-27T20:56:20.271Z,506.00
2022-12-27T20:57:20.262Z,502.00
2022-12-27T20:58:20.241Z,504.00
2022-12-27T20:59:20.241Z,509.00
2022-12-27T21:00:20.229Z,506.00
2022-12-27T21:01:20.398Z,507.00
2022-12-27T21:02:20.397Z,505.00
2022-12-27T21:03:20.290Z,503.00
2022-12-27T21:04:20.192Z,507.00
2022-12-27T21:05:20.191Z,506.00
2022-12-27T21:06:20.181Z,504.00
2022-12-27T21:07:20.161Z,507.00
2022-12-27T21:08:20.154Z,508.00
2022-12-27T21:09:20.149Z,506.00
2022-12-27T21:10:20.146Z,508.00
2022-12-27T21:11:20.169Z,509.00
2022-12-27T21:12:20.125Z,500.00
2022-12-27T21:13:20.119Z,510.00
2022-12-27T21:14:20.110Z,508.00
2022-12-27T21:15:20.119Z,512.00
2022-12-27T21:16:20.162Z,510.00
2022-12-27T21:17:20.080Z,505.00
2022-12-27T21:18:20.086Z,507.00
2022-12-27T21:19:20.079Z,510.00
2022-12-27T21:20:20.052Z,505.00
2022-12-27T21:21:20.112Z,512.00
2022-12-27T21:22:20.039Z,509.00
2022-12-27T21:23:20.024Z,508.00
2022-12-27T21:24:20.018Z,507.00
2022-12-27T21:25:20.019Z,509.00
2022-12-27T21:26:20.000Z,506.00
2022-12-27T21:27:20.021Z,509.00
2022-12-27T21:28:19.988Z,509.00
2022-12-27T21:29:19.973Z,509.00
2022-12-27T21:30:19.966Z,507.00
2022-12-27T21:31:20.054Z,506.00
2022-12-27T21:32:19.949Z,512.00
2022-12-27T21:33:19.943Z,510.00
2022-12-27T21:34:19.932Z,508.00
2022-12-27T21:35:19.930Z,507.00
2022-12-27T21:36:19.927Z,513.00
2022-12-27T21:37:19.905Z,510.00
2022-12-27T21:38:19.900Z,503.00
2022-12-27T21:39:19.889Z,507.00
2022-12-27T21:40:19.884Z,505.00
2022-12-27T21:41:19.919Z,510.00
2022-12-27T21:42:19.872Z,507.00
2022-12-27T21:43:19.888Z,509.00
2022-12-27T21:44:19.911Z,507.00
2022-12-27T21:45:19.834Z,504.00
2022-12-27T21:46:19.874Z,508.00
2022-12-27T21:47:19.818Z,507.00
2022-12-27T21:48:19.818Z,507.00
2022-12-27T21:49:19.808Z,507.00
2022-12-27T21:50:19.800Z,513.00
2022-12-27T21:51:19.789Z,509.00
2022-12-27T21:52:19.780Z,511.00
2022-12-27T21:53:19.780Z,503.00
2022-12-27T21:54:19.763Z,506.00
2022-12-27T21:55:19.761Z,508.00
2022-12-27T21:56:19.750Z,511.00
2022-12-27T21:57:19.772Z,507.00
2022-12-27T21:58:19.733Z,506.00
2022-12-27T21:59:19.741Z,507.00
2022-12-27T22:00:19.713Z,506.00
2022-12-27T22:01:19.910Z,510.00
2022-12-27T22:02:19.852Z,509.00
2022-12-27T22:03:19.879Z,505.00
2022-12-27T22:04:19.681Z,507.00
2022-12-27T22:05:19.668Z,504.00
2022-12-27T22:06:19.661Z,505.00
2022-12-27T22:07:19.649Z,506.00
2022-12-27T22:08:19.641Z,507.00
2022-12-27T22:09:19.892Z,501.00
2022-12-27T22:10:19.623Z,502.00
2022-12-27T22:11:19.637Z,503.00
2022-12-27T22:12:19.616Z,507.00
2022-12-27T22:13:19.594Z,502.00
2022-12-27T22:14:23.472Z,507.00
2022-12-27T22:15:19.604Z,508.00
2022-12-27T22:16:19.627Z,508.00
2022-12-27T22:17:19.627Z,507.00
2022-12-27T22:18:19.557Z,508.00
2022-12-27T22:19:19.553Z,506.00
2022-12-27T22:20:19.542Z,504.00
2022-12-27T22:21:19.538Z,503.00
2022-12-27T22:22:19.519Z,506.00
2022-12-27T22:23:19.508Z,507.00
2022-12-27T22:24:19.987Z,507.00
2022-12-27T22:25:19.499Z,510.00
2022-12-27T22:26:19.499Z,507.00
2022-12-27T22:27:19.575Z,505.00
2022-12-27T22:28:19.475Z,501.00
2022-12-27T22:29:19.467Z,504.00
2022-12-27T22:30:19.479Z,505.00
2022-12-27T22:31:19.537Z,504.00
2022-12-27T22:32:19.437Z,509.00
2022-12-27T22:33:19.455Z,506.00
2022-12-27T22:34:19.429Z,507.00
2022-12-27T22:35:19.410Z,508.00
2022-12-27T22:36:19.405Z,505.00
2022-12-27T22:37:19.390Z,509.00
2022-12-27T22:38:19.381Z,504.00
2022-12-27T22:39:19.380Z,506.00
2022-12-27T22:40:30.814Z,501.00
2022-12-27T22:41:19.365Z,502.00
2022-12-27T22:42:19.355Z,503.00
2022-12-27T22:43:19.340Z,503.00
2022-12-27T22:44:19.332Z,502.00
2022-12-27T22:45:19.326Z,506.00
2022-12-27T22:46:19.391Z,508.00
2022-12-27T22:47:27.872Z,503.00
2022-12-27T22:48:19.326Z,504.00
2022-12-27T22:49:19.295Z,504.00
2022-12-27T22:50:19.293Z,504.00
2022-12-27T22:51:19.269Z,505.00
2022-12-27T22:52:19.267Z,504.00
2022-12-27T22:53:19.256Z,503.00
2022-12-27T22:54:19.272Z,500.00
2022-12-27T22:55:19.236Z,503.00
2022-12-27T22:56:19.237Z,503.00
2022-12-27T22:57:19.220Z,506.00
2022-12-27T22:58:19.212Z,508.00
2022-12-27T22:59:19.201Z,501.00
2022-12-27T23:00:19.197Z,503.00
2022-12-27T23:01:19.315Z,508.00
2022-12-27T23:02:19.356Z,503.00
2022-12-27T23:03:19.197Z,504.00
2022-12-27T23:04:19.246Z,505.00
2022-12-27T23:05:19.153Z,506.00
2022-12-27T23:06:19.167Z,508.00
2022-12-27T23:07:19.138Z,505.00
2022-12-27T23:08:19.128Z,503.00
2022-12-27T23:09:19.112Z,509.00
2022-12-27T23:10:19.161Z,507.00
2022-12-27T23:11:19.096Z,505.00
2022-12-27T23:12:19.097Z,510.00
2022-12-27T23:13:19.079Z,506.00
2022-12-27T23:14:19.084Z,508.00
2022-12-27T23:15:19.117Z,507.00
2022-12-27T23:16:19.155Z,509.00
2022-12-27T23:17:19.047Z,506.00
2022-12-27T23:18:19.046Z,508.00
2022-12-27T23:19:19.060Z,512.00
2022-12-27T23:20:19.031Z,508.00
2022-12-27T23:21:23.892Z,507.00
2022-12-27T23:22:19.013Z,507.00
2022-12-27T23:23:19.002Z,508.00
2022-12-27T23:24:19.020Z,507.00
2022-12-27T23:25:19.020Z,508.00
2022-12-27T23:26:18.983Z,513.00
2022-12-27T23:27:18.959Z,511.00
2022-12-27T23:28:18.956Z,508.00
2022-12-27T23:29:18.975Z,513.00
2022-12-27T23:30:18.936Z,509.00
2022-12-27T23:31:18.965Z,511.00
2022-12-27T23:32:18.917Z,509.00
2022-12-27T23:33:18.910Z,506.00
2022-12-27T23:34:25.579Z,500.00
2022-12-27T23:35:18.951Z,501.00
2022-12-27T23:36:18.889Z,503.00
2022-12-27T23:37:18.894Z,503.00
2022-12-27T23:38:18.865Z,509.00
2022-12-27T23:39:18.859Z,512.00
2022-12-27T23:40:18.855Z,506.00
2022-12-27T23:41:18.838Z,506.00
2022-12-27T23:42:18.842Z,503.00
2022-12-27T23:43:51.041Z,507.00
2022-12-27T23:44:33.935Z,508.00
2022-12-27T23:45:18.821Z,508.00
2022-12-27T23:46:18.820Z,509.00
2022-12-27T23:47:18.802Z,509.00
2022-12-27T23:48:18.778Z,511.00
2022-12-27T23:49:18.771Z,509.00
2022-12-27T23:50:21.058Z,510.00
2022-12-27T23:51:18.815Z,510.00
2022-12-27T23:52:18.745Z,510.00
2022-12-27T23:53:18.737Z,511.00
2022-12-27T23:54:18.727Z,507.00
2022-12-27T23:55:18.719Z,507.00
2022-12-27T23:56:18.709Z,504.00
2022-12-27T23:57:20.011Z,508.00
2022-12-27T23:58:18.694Z,508.00
2022-12-27T23:59:18.682Z,508.00
